createdAt,value
2019-05-01T00:01:39.888Z,13.73
2019-05-01T00:06:49.137Z,13.23
2019-05-01T00:11:50.223Z,13.50
2019-05-01T00:16:51.420Z,14.57
2019-05-01T00:21:52.612Z,16.20
2019-05-01T00:26:53.714Z,16.53
2019-05-01T00:31:55.094Z,15.90
2019-05-01T00:36:56.193Z,16.97
2019-05-01T00:41:57.388Z,16.27
2019-05-01T00:46:58.479Z,16.23
2019-05-01T00:51:59.591Z,15.03
2019-05-01T00:57:08.802Z,16.40
2019-05-01T01:02:30.304Z,14.87
2019-05-01T01:07:31.395Z,14.63
2019-05-01T01:12:32.487Z,15.13
2019-05-01T01:17:33.585Z,14.50
2019-05-01T01:22:34.784Z,15.10
2019-05-01T01:27:36.080Z,13.67
2019-05-01T01:32:37.174Z,13.73
2019-05-01T01:37:38.264Z,15.23
2019-05-01T01:42:40.463Z,15.73
2019-05-01T01:48:00.615Z,15.90
2019-05-01T01:53:02.107Z,17.53
2019-05-01T01:58:03.798Z,17.97
2019-05-01T02:03:07.024Z,17.40
2019-05-01T02:08:09.004Z,17.60
2019-05-01T02:13:10.825Z,17.73
2019-05-01T02:18:11.940Z,16.17
2019-05-01T02:23:13.149Z,17.07
2019-05-01T02:28:22.147Z,20.57
2019-05-01T02:33:23.340Z,19.60
2019-05-01T02:38:24.557Z,19.07
2019-05-01T02:43:29.476Z,17.93
2019-05-01T02:48:34.195Z,18.50
2019-05-01T02:53:38.984Z,18.87
2019-05-01T02:58:44.287Z,20.13
2019-05-01T03:03:46.689Z,19.13
2019-05-01T03:08:49.880Z,19.37
2019-05-01T03:13:54.580Z,19.20
2019-05-01T03:19:01.233Z,19.10
2019-05-01T03:24:10.910Z,18.63
2019-05-01T03:29:12.392Z,19.50
2019-05-01T03:34:13.602Z,19.53
2019-05-01T03:39:15.295Z,20.07
2019-05-01T03:44:16.723Z,19.23
2019-05-01T03:49:17.815Z,19.73
2019-05-01T03:54:19.707Z,19.83
2019-05-01T03:59:20.992Z,19.93
2019-05-01T04:04:24.103Z,17.97
2019-05-01T04:09:25.290Z,18.83
2019-05-01T04:14:26.585Z,19.03
2019-05-01T04:19:27.915Z,22.57
2019-05-01T04:24:30.223Z,21.30
2019-05-01T04:29:34.025Z,20.40
2019-05-01T04:34:38.134Z,20.13
2019-05-01T04:39:39.522Z,21.87
2019-05-01T04:44:40.621Z,19.50
2019-05-01T04:49:41.990Z,21.30
2019-05-01T04:54:43.184Z,20.93
2019-05-01T04:59:44.581Z,21.63
2019-05-01T05:04:46.603Z,20.80
2019-05-01T05:09:47.824Z,19.97
2019-05-01T05:14:54.427Z,21.83
2019-05-01T05:19:55.620Z,20.80
2019-05-01T05:24:57.621Z,20.70
2019-05-01T05:29:59.603Z,21.93
2019-05-01T05:35:02.900Z,20.30
2019-05-01T05:40:05.107Z,20.43
2019-05-01T05:45:06.737Z,22.10
2019-05-01T05:50:10.223Z,25.07
2019-05-01T05:55:19.321Z,22.00
2019-05-01T06:00:25.644Z,20.30
2019-05-01T06:05:30.159Z,21.63
2019-05-01T06:10:35.063Z,21.70
2019-05-01T06:15:49.989Z,20.40
2019-05-01T06:20:56.974Z,19.00
2019-05-01T06:26:02.553Z,19.23
2019-05-01T06:31:22.462Z,19.20
2019-05-01T06:36:23.704Z,19.77
2019-05-01T06:41:28.730Z,20.77
2019-05-01T06:46:35.530Z,21.20
2019-05-01T06:51:41.471Z,21.40
2019-05-01T06:56:43.773Z,19.93
2019-05-01T07:01:46.884Z,20.07
2019-05-01T07:06:48.801Z,20.13
2019-05-01T07:11:52.751Z,22.27
2019-05-01T07:16:53.592Z,19.07
2019-05-01T07:21:54.905Z,20.33
2019-05-01T07:26:55.996Z,19.40
2019-05-01T07:31:57.084Z,18.97
2019-05-01T07:36:58.783Z,19.67
2019-05-01T07:42:18.592Z,19.07
2019-05-01T07:47:26.042Z,19.47
2019-05-01T07:52:26.271Z,19.83
2019-05-01T07:57:27.960Z,18.10
2019-05-01T08:02:31.011Z,18.30
2019-05-01T08:07:33.487Z,17.73
2019-05-01T08:12:34.874Z,18.03
2019-05-01T08:17:38.442Z,17.17
2019-05-01T08:22:39.660Z,17.43
2019-05-01T08:27:50.969Z,17.13
2019-05-01T08:33:14.690Z,16.90
2019-05-01T08:38:13.983Z,18.10
2019-05-01T08:43:18.053Z,17.80
2019-05-01T08:48:20.044Z,17.23
2019-05-01T08:53:22.057Z,17.03
2019-05-01T08:58:24.158Z,16.23
2019-05-01T09:03:25.277Z,16.23
2019-05-01T09:08:27.184Z,15.13
2019-05-01T09:13:29.385Z,15.90
2019-05-01T09:18:30.513Z,15.47
2019-05-01T09:23:34.270Z,14.83
2019-05-01T09:28:39.718Z,15.23
2019-05-01T09:33:40.057Z,14.17
2019-05-01T09:38:41.424Z,14.17
2019-05-01T09:43:42.656Z,13.30
2019-05-01T09:48:44.858Z,11.03
2019-05-01T09:53:47.876Z,10.00
2019-05-01T09:58:49.030Z,9.00
2019-05-01T10:03:54.554Z,8.93
2019-05-01T10:08:53.359Z,7.40
2019-05-01T10:13:58.403Z,7.70
2019-05-01T10:18:57.593Z,7.37
2019-05-01T10:23:58.687Z,6.70
2019-05-01T10:29:10.736Z,7.20
2019-05-01T10:34:19.733Z,7.47
2019-05-01T10:39:20.935Z,6.97
2019-05-01T10:44:22.031Z,7.47
2019-05-01T10:49:23.170Z,7.87
2019-05-01T10:54:24.270Z,6.70
2019-05-01T10:59:25.367Z,7.60
2019-05-01T11:04:26.578Z,7.70
2019-05-01T11:09:27.660Z,7.67
2019-05-01T11:14:28.761Z,7.83
2019-05-01T11:19:29.855Z,8.60
2019-05-01T11:24:30.951Z,7.83
2019-05-01T11:29:32.161Z,7.30
2019-05-01T11:34:53.591Z,7.90
2019-05-01T11:39:59.838Z,7.00
2019-05-01T11:45:00.934Z,6.90
2019-05-01T11:50:03.284Z,7.80
2019-05-01T11:55:04.781Z,7.97
2019-05-01T12:00:09.493Z,8.30
2019-05-01T12:05:11.196Z,7.30
2019-05-01T12:10:14.426Z,7.83
2019-05-01T12:15:16.406Z,7.17
2019-05-01T12:20:18.516Z,7.42
2019-05-01T12:25:19.619Z,8.10
2019-05-01T12:30:21.024Z,7.90
2019-05-01T12:35:22.136Z,8.60
2019-05-01T12:40:23.525Z,25.37
2019-05-01T12:45:24.650Z,10.35
2019-05-01T12:50:25.963Z,7.28
2019-05-01T12:55:44.034Z,6.00
2019-05-01T13:00:54.472Z,5.78
2019-05-01T13:05:55.595Z,7.53
2019-05-01T13:10:57.707Z,6.62
2019-05-01T13:15:58.924Z,5.62
2019-05-01T13:21:00.025Z,6.72
2019-05-01T13:26:03.042Z,5.95
2019-05-01T13:31:09.054Z,6.70
2019-05-01T13:36:10.526Z,6.67
2019-05-01T13:41:11.643Z,5.53
2019-05-01T13:46:12.763Z,10.23
2019-05-01T13:51:14.172Z,10.25
2019-05-01T13:56:15.283Z,6.90
2019-05-01T14:01:16.464Z,5.35
2019-05-01T14:06:17.692Z,5.33
2019-05-01T14:11:18.903Z,6.00
2019-05-01T14:16:20.110Z,6.53
2019-05-01T14:21:23.110Z,5.92
2019-05-01T14:26:24.207Z,5.60
2019-05-01T14:31:25.303Z,5.90
2019-05-01T14:36:26.421Z,5.78
2019-05-01T14:41:27.512Z,5.90
2019-05-01T14:46:28.656Z,5.45
2019-05-01T14:51:29.778Z,4.92
2019-05-01T14:56:30.983Z,5.03
2019-05-01T15:01:32.093Z,6.17
2019-05-01T15:06:33.325Z,18.30
2019-05-01T15:11:34.827Z,9.28
2019-05-01T15:16:37.835Z,5.92
2019-05-01T15:21:38.929Z,5.10
2019-05-01T15:26:40.135Z,5.25
2019-05-01T15:31:41.231Z,5.12
2019-05-01T15:36:42.371Z,5.30
2019-05-01T15:42:02.086Z,5.30
2019-05-01T15:47:03.674Z,6.03
2019-05-01T15:52:05.071Z,5.55
2019-05-01T15:57:06.285Z,4.33
2019-05-01T16:02:07.391Z,4.35
2019-05-01T16:07:08.609Z,5.30
2019-05-01T16:12:20.738Z,4.95
2019-05-01T16:17:21.859Z,4.78
2019-05-01T16:22:22.948Z,4.78
2019-05-01T16:27:24.078Z,4.87
2019-05-01T16:32:25.356Z,19.12
2019-05-01T19:42:11.165Z,5.73
2019-05-01T19:47:12.297Z,5.43
2019-05-01T19:52:13.551Z,5.20
2019-05-01T19:57:14.840Z,5.23
2019-05-01T20:02:17.343Z,5.83
2019-05-01T20:07:21.548Z,4.93
2019-05-01T20:12:22.347Z,4.80
2019-05-01T20:17:23.682Z,4.77
2019-05-01T20:22:24.820Z,4.90
2019-05-01T20:27:27.678Z,4.83
2019-05-01T20:32:28.925Z,5.70
2019-05-01T20:37:30.043Z,5.33
2019-05-01T20:42:31.253Z,5.13
2019-05-01T20:47:35.320Z,6.07
2019-05-01T20:52:35.638Z,5.10
2019-05-01T20:57:44.830Z,5.23
2019-05-01T21:02:46.029Z,5.97
2019-05-01T21:07:52.124Z,5.20
2019-05-01T21:12:54.753Z,4.80
2019-05-01T21:17:55.846Z,5.53
2019-05-01T21:22:56.979Z,6.20
2019-05-01T21:27:58.081Z,6.67
2019-05-01T21:33:08.092Z,6.00
2019-05-01T21:38:02.398Z,6.07
2019-05-01T21:43:03.535Z,5.17
2019-05-01T21:48:04.647Z,5.60
2019-05-01T21:53:06.969Z,5.40
2019-05-01T21:58:08.350Z,6.17
